CYZS

Coral Harbour Airport

Coral Harbour, Canada
METAR CYZS 152000Z 36025KT 15SM FEW020 FEW070 FEW210 13/05 A2968 RMK SC1AC1CI1 AC TR WND ESTD SLP055 DENSITY ALT 300FT
Observed Flight Rules
Jul-15 @ 20:00 UTC (an hour ago) Visual Flight Rules
Wind Visibility Clouds
360° at 25 knots 15 miles
  • Few at 2,000' AGL
  • Few at 7,000' AGL
  • Few at 21,000' AGL
Temperatures Readings
Current 13°C / 55°F
Dewpoint 5°C / 41°F
Humidity 59%
Altimeter 29.68" Hg
Pressure 1005.5 hPa
Elevation 64
METAR CYZS 152000Z 36025KT 15SM FEW020 FEW070 FEW210 13/05 A2968 RMK SC1AC1CI1 AC TR WND ESTD SLP055 DENSITY ALT 300FT
Observed Flight Rules
Jul-15 @ 20:00 UTC
(an hour ago)
VFR
Wind Visibility
360° at 25 knots 15 miles
Clouds
  • Few at 2,000' AGL
  • Few at 7,000' AGL
  • Few at 21,000' AGL
Temperature Dewpoint
13°C / 55°F 5°C / 41°F
Humidity Altimeter Pressure
59% 29.68" Hg 1005.5 hPa